Time;durP1;ratioP1;P1;durP2;ratioP2;P2;SDS_P1;SDS_P2;PMS_P1;PMS_P2;Temp;Humidity;BMP_temperature;BMP_pressure;BME280_temperature;BME280_humidity;BME280_pressure;Samples;Min_cycle;Max_cycle;Signal;HPM_P1;HPM_P2
2023/03/15 00:00:48;;;;;;;;;;;;;;;;;;5093743;28;883;-70
2023/03/15 00:03:14;;;;;;;;;;;;;;;;;;5092854;28;1046;-70
2023/03/15 00:05:43;;;;;;;;;;;;;;;;;;5091676;28;1217;-70
2023/03/15 00:08:11;;;;;;;;;;;;;;;;;;5094327;28;1915;-70
2023/03/15 00:10:40;;;;;;;;;;;;;;;;;;5093610;28;1120;-70
2023/03/15 00:13:06;;;;;;;;;;;;;;;;;;5094193;28;841;-70
2023/03/15 00:15:31;;;;;;;;;;;;;;;;;;5092290;28;1019;-70
2023/03/15 00:17:56;;;;;;;;;;;;;;;;;;5092548;28;1131;-70
2023/03/15 00:20:22;;;;;;;;;;;;;;;;;;5092763;28;967;-70
2023/03/15 00:22:47;;;;;;;;;;;;;;;;;;5093374;28;907;-70
2023/03/15 00:25:12;;;;;;;;;;;;;;;;;;5092851;28;888;-70
2023/03/15 00:27:37;;;;;;;;;;;;;;;;;;5091998;28;1260;-70
2023/03/15 00:30:03;;;;;;;;;;;;;;;;;;5094299;28;1914;-70
2023/03/15 00:32:28;;;;;;;;;;;;;;;;;;5094238;28;908;-70
2023/03/15 00:34:54;;;;;;;;;;;;;;;;;;5092042;28;939;-70
2023/03/15 00:37:20;;;;;;;;;;;;;;;;;;5093662;28;923;-70
2023/03/15 00:39:45;;;;;;;;;;;;;;;;;;5093036;28;955;-70
2023/03/15 00:42:14;;;;;;;;;;;;;;;;;;5093634;28;908;-69
2023/03/15 00:44:39;;;;;;;;;;;;;;;;;;5092173;28;1170;-71
2023/03/15 00:47:05;;;;;;;;;;;;;;;;;;5093453;28;856;-70
2023/03/15 00:49:31;;;;;;;;;;;;;;;;;;5092319;28;1902;-70
2023/03/15 00:51:56;;;;;;;;;;;;;;;;;;5093466;28;954;-70
2023/03/15 00:54:22;;;;;;;;;;;;;;;;;;5092154;28;1222;-70
2023/03/15 00:56:48;;;;;;;;;;;;;;;;;;5093399;28;813;-70
2023/03/15 00:59:13;;;;;;;;;;;;;;;;;;5092574;28;1131;-70
2023/03/15 01:01:43;;;;;;;;;;;;;;;;;;5093250;28;852;-70
2023/03/15 01:04:08;;;;;;;;;;;;;;;;;;5093115;28;883;-70
2023/03/15 01:06:34;;;;;;;;;;;;;;;;;;5092315;28;904;-71
2023/03/15 01:09:00;;;;;;;;;;;;;;;;;;5091660;28;1967;-70
2023/03/15 01:11:26;;;;;;;;;;;;;;;;;;5091430;28;1226;-70
2023/03/15 01:13:52;;;;;;;;;;;;;;;;;;5093228;28;879;-70
2023/03/15 01:16:18;;;;;;;;;;;;;;;;;;5093002;28;1043;-70
2023/03/15 01:18:43;;;;;;;;;;;;;;;;;;5091230;28;1392;-70
2023/03/15 01:21:09;;;;;;;;;;;;;;;;;;5091457;28;884;-70
2023/03/15 01:23:35;;;;;;;;;;;;;;;;;;5091074;28;1127;-70
2023/03/15 01:26:01;;;;;;;;;;;;;;;;;;5091406;28;983;-70
2023/03/15 01:28:26;;;;;;;;;;;;;;;;;;5092368;28;1946;-70
2023/03/15 01:30:52;;;;;;;;;;;;;;;;;;5092221;28;995;-70
2023/03/15 01:33:17;;;;;;;;;;;;;;;;;;5091087;28;1162;-71
2023/03/15 01:35:43;;;;;;;;;;;;;;;;;;5090794;28;1128;-71
2023/03/15 01:38:08;;;;;;;;;;;;;;;;;;5092622;28;896;-71
2023/03/15 01:40:34;;;;;;;;;;;;;;;;;;5092597;28;844;-71
2023/03/15 01:43:02;;;;;;;;;;;;;;;;;;5091065;28;1258;-71
2023/03/15 01:45:48;;;;;;;;;;;;;;;;;;5090998;28;1308;-71
2023/03/15 01:48:14;;;;;;;;;;;;;;;;;;5091056;28;1897;-70
2023/03/15 01:50:39;;;;;;;;;;;;;;;;;;5092346;28;829;-70
2023/03/15 01:53:04;;;;;;;;;;;;;;;;;;5092639;28;979;-70
2023/03/15 01:55:31;;;;;;;;;;;;;;;;;;5074058;28;1301;-70
2023/03/15 01:57:57;;;;;;;;;;;;;;;;;;5090303;28;1332;-70
2023/03/15 02:00:23;;;;;;;;;;;;;;;;;;5090716;28;1178;-70
2023/03/15 02:02:53;;;;;;;;;;;;;;;;;;5090452;28;1162;-70
2023/03/15 02:05:26;;;;;;;;;;;;;;;;;;5092430;28;951;-70
2023/03/15 02:07:53;;;;;;;;;;;;;;;;;;5090457;28;1064;-70
2023/03/15 02:10:54;;;;;;;;;;;;;;;;;;5091620;28;1962;-70
2023/03/15 02:13:23;;;;;;;;;;;;;;;;;;5049376;28;1388;-70
2023/03/15 02:15:49;;;;;;;;;;;;;;;;;;5084084;28;1083;-70
2023/03/15 02:18:15;;;;;;;;;;;;;;;;;;5090576;28;1270;-70
2023/03/15 02:20:49;;;;;;;;;;;;;;;;;;5090955;28;1062;-70
2023/03/15 02:23:17;;;;;;;;;;;;;;;;;;5092829;28;840;-70
2023/03/15 02:26:04;;;;;;;;;;;;;;;;;;5091766;28;1049;-70
2023/03/15 02:28:30;;;;;;;;;;;;;;;;;;5092878;28;1910;-70
2023/03/15 02:30:56;;;;;;;;;;;;;;;;;;5096411;28;967;-70
2023/03/15 02:33:24;;;;;;;;;;;;;;;;;;5095881;28;884;-70
2023/03/15 02:35:50;;;;;;;;;;;;;;;;;;5096132;28;812;-70
2023/03/15 02:38:15;;;;;;;;;;;;;;;;;;5096749;28;621;-70
2023/03/15 02:40:40;;;;;;;;;;;;;;;;;;5095042;28;1142;-70
2023/03/15 02:43:10;;;;;;;;;;;;;;;;;;5096254;28;990;-70
2023/03/15 02:45:37;;;;;;;;;;;;;;;;;;5096200;28;864;-70
2023/03/15 02:48:04;;;;;;;;;;;;;;;;;;5094595;28;1194;-70
2023/03/15 02:50:29;;;;;;;;;;;;;;;;;;5096456;28;1914;-70
2023/03/15 02:52:54;;;;;;;;;;;;;;;;;;5094602;28;1147;-70
2023/03/15 02:55:20;;;;;;;;;;;;;;;;;;5077845;28;1321;-70
2023/03/15 02:57:46;;;;;;;;;;;;;;;;;;5095226;28;852;-70
2023/03/15 03:00:14;;;;;;;;;;;;;;;;;;5095872;28;900;-70
2023/03/15 03:02:41;;;;;;;;;;;;;;;;;;5094143;28;1184;-70
2023/03/15 03:05:06;;;;;;;;;;;;;;;;;;5095558;28;762;-70
2023/03/15 03:07:32;;;;;;;;;;;;;;;;;;5094496;28;849;-70
2023/03/15 03:09:57;;;;;;;;;;;;;;;;;;5094926;28;1977;-70
2023/03/15 03:12:22;;;;;;;;;;;;;;;;;;5095313;28;978;-70
2023/03/15 03:14:48;;;;;;;;;;;;;;;;;;5093992;28;837;-70
2023/03/15 03:17:13;;;;;;;;;;;;;;;;;;5093932;28;1416;-70
2023/03/15 03:19:38;;;;;;;;;;;;;;;;;;5076966;28;1088;-70
2023/03/15 03:22:03;;;;;;;;;;;;;;;;;;5093294;28;878;-70
2023/03/15 03:24:30;;;;;;;;;;;;;;;;;;5093776;28;1062;-72
2023/03/15 03:26:56;;;;;;;;;;;;;;;;;;5094966;28;793;-72
2023/03/15 03:29:22;;;;;;;;;;;;;;;;;;5094837;28;1927;-72
2023/03/15 03:31:47;;;;;;;;;;;;;;;;;;5095314;28;880;-72
2023/03/15 03:34:14;;;;;;;;;;;;;;;;;;5094557;28;940;-72
2023/03/15 03:36:39;;;;;;;;;;;;;;;;;;5093545;28;1003;-72
2023/03/15 03:39:05;;;;;;;;;;;;;;;;;;5093394;28;1175;-72
2023/03/15 03:41:30;;;;;;;;;;;;;;;;;;5093174;28;871;-72
2023/03/15 03:43:55;;;;;;;;;;;;;;;;;;5093204;28;1146;-72
2023/03/15 03:46:20;;;;;;;;;;;;;;;;;;5093616;28;1281;-72
2023/03/15 03:48:46;;;;;;;;;;;;;;;;;;5092914;28;2325;-69
2023/03/15 03:51:11;;;;;;;;;;;;;;;;;;5094534;28;892;-69
2023/03/15 03:53:36;;;;;;;;;;;;;;;;;;5094362;28;865;-71
2023/03/15 03:56:05;;;;;;;;;;;;;;;;;;5093854;28;1313;-71
2023/03/15 03:58:30;;;;;;;;;;;;;;;;;;5094807;28;852;-71
2023/03/15 04:00:56;;;;;;;;;;;;;;;;;;5093262;28;931;-71
2023/03/15 04:03:27;;;;;;;;;;;;;;;;;;5094680;28;971;-71
2023/03/15 04:05:56;;;;;;;;;;;;;;;;;;5094446;28;868;-71
2023/03/15 04:08:22;;;;;;;;;;;;;;;;;;5094629;28;1959;-71
2023/03/15 04:10:52;;;;;;;;;;;;;;;;;;5092784;28;1356;-71
2023/03/15 04:13:17;;;;;;;;;;;;;;;;;;5092901;28;1146;-71
2023/03/15 04:15:43;;;;;;;;;;;;;;;;;;5092835;28;1177;-71
2023/03/15 04:18:08;;;;;;;;;;;;;;;;;;5092593;28;1250;-71
2023/03/15 04:20:33;;;;;;;;;;;;;;;;;;5092725;28;1190;-71
2023/03/15 04:22:59;;;;;;;;;;;;;;;;;;5093349;28;912;-71
2023/03/15 04:25:25;;;;;;;;;;;;;;;;;;5092830;28;1186;-71
2023/03/15 04:27:57;;;;;;;;;;;;;;;;;;5092357;28;1182;-71
2023/03/15 04:30:25;;;;;;;;;;;;;;;;;;5092007;28;1914;-71
2023/03/15 04:32:57;;;;;;;;;;;;;;;;;;5092334;28;1202;-71
2023/03/15 04:35:23;;;;;;;;;;;;;;;;;;5094058;28;883;-71
2023/03/15 04:37:48;;;;;;;;;;;;;;;;;;5075138;28;1179;-71
2023/03/15 04:40:14;;;;;;;;;;;;;;;;;;5093450;28;906;-71
2023/03/15 04:42:39;;;;;;;;;;;;;;;;;;5093814;28;856;-71
2023/03/15 04:45:04;;;;;;;;;;;;;;;;;;5093631;28;860;-71
2023/03/15 04:47:30;;;;;;;;;;;;;;;;;;5093388;28;907;-71
2023/03/15 04:49:55;;;;;;;;;;;;;;;;;;5091788;28;1910;-71
2023/03/15 04:52:20;;;;;;;;;;;;;;;;;;5091563;28;1261;-71
2023/03/15 04:54:45;;;;;;;;;;;;;;;;;;5093194;28;880;-71
2023/03/15 04:57:11;;;;;;;;;;;;;;;;;;5093186;28;888;-71
2023/03/15 04:59:36;;;;;;;;;;;;;;;;;;5091914;28;844;-71
2023/03/15 05:02:02;;;;;;;;;;;;;;;;;;5091739;28;1263;-71
2023/03/15 05:04:27;;;;;;;;;;;;;;;;;;5093042;28;1037;-71
2023/03/15 05:06:52;;;;;;;;;;;;;;;;;;5091564;28;1158;-71
2023/03/15 05:09:18;;;;;;;;;;;;;;;;;;5091406;28;1902;-71
2023/03/15 05:11:43;;;;;;;;;;;;;;;;;;5093036;28;1084;-71
2023/03/15 05:14:08;;;;;;;;;;;;;;;;;;5091353;28;1143;-71
2023/03/15 05:16:34;;;;;;;;;;;;;;;;;;5091631;28;1315;-71
2023/03/15 05:18:59;;;;;;;;;;;;;;;;;;5091665;28;1289;-71
2023/03/15 05:21:24;;;;;;;;;;;;;;;;;;5091870;28;1178;-71
2023/03/15 05:23:50;;;;;;;;;;;;;;;;;;5074637;28;1241;-71
2023/03/15 05:26:15;;;;;;;;;;;;;;;;;;5092652;28;967;-71
2023/03/15 05:28:44;;;;;;;;;;;;;;;;;;5091910;28;1969;-71
2023/03/15 05:31:09;;;;;;;;;;;;;;;;;;5091793;28;974;-71
2023/03/15 05:33:34;;;;;;;;;;;;;;;;;;5091816;28;1120;-71
2023/03/15 05:36:00;;;;;;;;;;;;;;;;;;5092705;28;880;-71
2023/03/15 05:38:25;;;;;;;;;;;;;;;;;;5092847;28;868;-71
2023/03/15 05:40:51;;;;;;;;;;;;;;;;;;5091425;28;1063;-71
2023/03/15 05:43:16;;;;;;;;;;;;;;;;;;5091126;28;1308;-71
2023/03/15 05:45:43;;;;;;;;;;;;;;;;;;5092854;28;1430;-71
2023/03/15 05:48:09;;;;;;;;;;;;;;;;;;5095130;28;1198;-71
2023/03/15 05:50:34;;;;;;;;;;;;;;;;;;5087858;28;1890;-71
2023/03/15 05:52:59;;;;;;;;;;;;;;;;;;5092573;28;859;-71
2023/03/15 05:55:25;;;;;;;;;;;;;;;;;;5092647;28;848;-71
2023/03/15 05:57:50;;;;;;;;;;;;;;;;;;5092734;28;891;-71
2023/03/15 06:00:16;;;;;;;;;;;;;;;;;;5090984;28;1186;-71
2023/03/15 06:02:42;;;;;;;;;;;;;;;;;;5093409;28;1236;-71
2023/03/15 06:05:07;;;;;;;;;;;;;;;;;;5082722;28;1137;-71
2023/03/15 06:07:32;;;;;;;;;;;;;;;;;;5100778;28;1195;-71
2023/03/15 06:09:58;;;;;;;;;;;;;;;;;;5095654;28;1910;-71
2023/03/15 06:12:23;;;;;;;;;;;;;;;;;;5090532;28;1055;-71
2023/03/15 06:14:48;;;;;;;;;;;;;;;;;;5092378;28;876;-71
2023/03/15 06:17:13;;;;;;;;;;;;;;;;;;5093575;28;1265;-71
2023/03/15 06:19:39;;;;;;;;;;;;;;;;;;5110273;28;1448;-71
2023/03/15 06:22:04;;;;;;;;;;;;;;;;;;5109931;28;1341;-71
2023/03/15 06:24:29;;;;;;;;;;;;;;;;;;5112344;28;920;-72
2023/03/15 06:26:55;;;;;;;;;;;;;;;;;;5110621;28;1205;-71
2023/03/15 06:29:20;;;;;;;;;;;;;;;;;;5107464;28;1910;-71
2023/03/15 06:31:48;;;;;;;;;;;;;;;;;;5090797;28;1304;-72
2023/03/15 06:34:13;;;;;;;;;;;;;;;;;;5092609;28;824;-72
2023/03/15 06:36:38;;;;;;;;;;;;;;;;;;5092851;28;967;-72
2023/03/15 06:39:04;;;;;;;;;;;;;;;;;;5092345;28;891;-72
2023/03/15 06:41:31;;;;;;;;;;;;;;;;;;5090418;28;1190;-72
2023/03/15 06:43:56;;;;;;;;;;;;;;;;;;5092101;28;965;-72
2023/03/15 06:46:21;;;;;;;;;;;;;;;;;;5092117;28;832;-72
2023/03/15 06:48:47;;;;;;;;;;;;;;;;;;5091141;28;1971;-72
2023/03/15 06:51:12;;;;;;;;;;;;;;;;;;5092106;28;885;-72
2023/03/15 06:53:37;;;;;;;;;;;;;;;;;;5092323;28;828;-72
2023/03/15 06:56:03;;;;;;;;;;;;;;;;;;5092235;28;864;-72
2023/03/15 06:58:28;;;;;;;;;;;;;;;;;;5092015;28;858;-72
2023/03/15 07:00:54;;;;;;;;;;;;;;;;;;5090553;28;939;-72
2023/03/15 07:03:21;;;;;;;;;;;;;;;;;;5090497;28;1188;-72
2023/03/15 07:05:48;;;;;;;;;;;;;;;;;;5073999;28;1211;-72
2023/03/15 07:08:13;;;;;;;;;;;;;;;;;;5091431;28;1178;-72
2023/03/15 07:10:38;;;;;;;;;;;;;;;;;;5090739;28;1977;-72
2023/03/15 07:13:05;;;;;;;;;;;;;;;;;;5092372;28;828;-73
2023/03/15 07:15:31;;;;;;;;;;;;;;;;;;5095403;28;781;-72
2023/03/15 07:17:56;;;;;;;;;;;;;;;;;;5095886;28;904;-71
2023/03/15 07:20:21;;;;;;;;;;;;;;;;;;5094014;28;1256;-71
2023/03/15 07:22:46;;;;;;;;;;;;;;;;;;5094056;28;1316;-71
2023/03/15 07:25:12;;;;;;;;;;;;;;;;;;5093569;28;1217;-71
2023/03/15 07:27:37;;;;;;;;;;;;;;;;;;5094527;28;817;-72
2023/03/15 07:30:03;;;;;;;;;;;;;;;;;;5076948;28;1918;-71
2023/03/15 07:32:30;;;;;;;;;;;;;;;;;;5093459;28;1178;-72
2023/03/15 07:34:59;;;;;;;;;;;;;;;;;;5094878;28;864;-71
2023/03/15 07:37:24;;;;;;;;;;;;;;;;;;5094831;28;830;-71
2023/03/15 07:39:49;;;;;;;;;;;;;;;;;;5093259;28;880;-72
2023/03/15 07:42:15;;;;;;;;;;;;;;;;;;5093705;28;1013;-72
2023/03/15 07:44:40;;;;;;;;;;;;;;;;;;5094680;28;845;-72
2023/03/15 07:47:06;;;;;;;;;;;;;;;;;;5093835;28;931;-71
2023/03/15 07:49:33;;;;;;;;;;;;;;;;;;5093696;28;1955;-71
2023/03/15 07:51:58;;;;;;;;;;;;;;;;;;5093817;28;1186;-71
2023/03/15 07:54:24;;;;;;;;;;;;;;;;;;5093864;28;1351;-72
2023/03/15 07:56:49;;;;;;;;;;;;;;;;;;5093669;28;1180;-72
2023/03/15 07:59:14;;;;;;;;;;;;;;;;;;5093781;28;1249;-71
2023/03/15 08:01:39;;;;;;;;;;;;;;;;;;5094221;28;1057;-71
2023/03/15 08:04:05;;;;;;;;;;;;;;;;;;5092744;28;1198;-71
2023/03/15 08:06:30;;;;;;;;;;;;;;;;;;5094407;28;852;-70
2023/03/15 08:08:56;;;;;;;;;;;;;;;;;;5093898;28;1905;-70
2023/03/15 08:11:21;;;;;;;;;;;;;;;;;;5075503;28;1432;-69
2023/03/15 08:13:46;;;;;;;;;;;;;;;;;;5092842;28;1170;-70
2023/03/15 08:16:12;;;;;;;;;;;;;;;;;;5094028;28;812;-70
2023/03/15 08:18:37;;;;;;;;;;;;;;;;;;5092373;28;963;-70
2023/03/15 08:21:03;;;;;;;;;;;;;;;;;;5093920;28;828;-69
2023/03/15 08:23:28;;;;;;;;;;;;;;;;;;5093404;28;844;-69
2023/03/15 08:25:53;;;;;;;;;;;;;;;;;;5092431;28;936;-70
2023/03/15 08:28:18;;;;;;;;;;;;;;;;;;5091853;28;1396;-70
2023/03/15 08:30:44;;;;;;;;;;;;;;;;;;5093682;28;1913;-70
2023/03/15 08:33:11;;;;;;;;;;;;;;;;;;5093817;28;895;-69
2023/03/15 08:35:37;;;;;;;;;;;;;;;;;;5094187;28;824;-70
2023/03/15 08:38:02;;;;;;;;;;;;;;;;;;5094045;28;888;-70
2023/03/15 08:40:28;;;;;;;;;;;;;;;;;;5093512;28;841;-70
2023/03/15 08:42:54;;;;;;;;;;;;;;;;;;5093661;28;820;-70
2023/03/15 08:45:25;;;;;;;;;;;;;;;;;;5093266;28;797;-70
2023/03/15 08:47:54;;;;;;;;;;;;;;;;;;5093609;28;958;-69
2023/03/15 08:50:19;;;;;;;;;;;;;;;;;;5093575;28;1901;-70
2023/03/15 08:52:45;;;;;;;;;;;;;;;;;;5092018;28;900;-69
2023/03/15 08:55:13;;;;;;;;;;;;;;;;;;5092302;28;836;-69
2023/03/15 08:57:38;;;;;;;;;;;;;;;;;;5091562;28;1096;-70
2023/03/15 09:00:08;;;;;;;;;;;;;;;;;;5091613;28;986;-70
2023/03/15 09:02:33;;;;;;;;;;;;;;;;;;5091398;28;1301;-70
2023/03/15 09:04:59;;;;;;;;;;;;;;;;;;5091495;28;924;-70
2023/03/15 09:07:24;;;;;;;;;;;;;;;;;;5092785;28;998;-70
2023/03/15 09:09:53;;;;;;;;;;;;;;;;;;5092580;28;1969;-70
2023/03/15 09:12:19;;;;;;;;;;;;;;;;;;5092926;28;1148;-70
2023/03/15 09:14:45;;;;;;;;;;;;;;;;;;5091143;28;1258;-70
2023/03/15 09:17:10;;;;;;;;;;;;;;;;;;5092735;28;1031;-70
2023/03/15 09:19:36;;;;;;;;;;;;;;;;;;5092277;28;899;-70
2023/03/15 09:22:01;;;;;;;;;;;;;;;;;;5091254;28;1550;-70
2023/03/15 09:24:27;;;;;;;;;;;;;;;;;;5092431;28;994;-70
2023/03/15 09:26:52;;;;;;;;;;;;;;;;;;5092334;28;896;-70
2023/03/15 09:29:17;;;;;;;;;;;;;;;;;;5092664;28;1955;-70
2023/03/15 09:31:42;;;;;;;;;;;;;;;;;;5092200;28;809;-70
2023/03/15 09:34:08;;;;;;;;;;;;;;;;;;5092444;28;902;-70
2023/03/15 09:36:34;;;;;;;;;;;;;;;;;;5092399;28;840;-70
2023/03/15 09:39:00;;;;;;;;;;;;;;;;;;5091046;28;868;-70
2023/03/15 09:41:25;;;;;;;;;;;;;;;;;;5090960;28;829;-70
2023/03/15 09:43:57;;;;;;;;;;;;;;;;;;5090482;28;797;-70
2023/03/15 09:46:28;;;;;;;;;;;;;;;;;;5089800;28;1256;-70
2023/03/15 09:48:57;;;;;;;;;;;;;;;;;;5089224;28;1894;-70
2023/03/15 09:51:29;;;;;;;;;;;;;;;;;;5090585;28;844;-70
2023/03/15 09:53:58;;;;;;;;;;;;;;;;;;5090182;28;1095;-70
2023/03/15 09:56:24;;;;;;;;;;;;;;;;;;5091238;28;1395;-70
2023/03/15 09:58:51;;;;;;;;;;;;;;;;;;5090886;28;1292;-70
2023/03/15 10:01:17;;;;;;;;;;;;;;;;;;5092642;28;900;-70
2023/03/15 10:03:51;;;;;;;;;;;;;;;;;;5092329;28;867;-70
2023/03/15 10:06:27;;;;;;;;;;;;;;;;;;5091333;28;1269;-70
2023/03/15 10:08:57;;;;;;;;;;;;;;;;;;5090736;28;1914;-70
2023/03/15 10:11:33;;;;;;;;;;;;;;;;;;5090723;28;1226;-70
2023/03/15 10:14:14;;;;;;;;;;;;;;;;;;5092058;28;895;-70
2023/03/15 10:16:46;;;;;;;;;;;;;;;;;;5091588;28;856;-70
2023/03/15 10:19:28;;;;;;;;;;;;;;;;;;5091916;28;809;-70
2023/03/15 10:21:55;;;;;;;;;;;;;;;;;;5090475;28;1190;-70
2023/03/15 10:24:20;;;;;;;;;;;;;;;;;;5092538;28;817;-70
2023/03/15 10:26:46;;;;;;;;;;;;;;;;;;5090449;28;1252;-70
2023/03/15 10:29:16;;;;;;;;;;;;;;;;;;5093145;28;1914;-70
2023/03/15 10:31:42;;;;;;;;;;;;;;;;;;5092942;28;1019;-70
2023/03/15 10:34:10;;;;;;;;;;;;;;;;;;5093458;28;837;-70
2023/03/15 10:36:35;;;;;;;;;;;;;;;;;;5092416;28;971;-70
2023/03/15 10:39:00;;;;;;;;;;;;;;;;;;5090884;28;1392;-70
2023/03/15 10:41:27;;;;;;;;;;;;;;;;;;5073817;28;1155;-70
2023/03/15 10:44:04;;;;;;;;;;;;;;;;;;5092275;28;876;-70
2023/03/15 10:46:29;;;;;;;;;;;;;;;;;;5090787;28;1174;-70
2023/03/15 10:48:59;;;;;;;;;;;;;;;;;;5093654;28;1922;-70
2023/03/15 10:51:24;;;;;;;;;;;;;;;;;;5103490;28;1148;-71
2023/03/15 10:53:53;;;;;;;;;;;;;;;;;;5094452;28;932;-71
2023/03/15 10:56:29;;;;;;;;;;;;;;;;;;5096225;28;884;-70
2023/03/15 10:58:56;;;;;;;;;;;;;;;;;;5095787;28;1023;-70
2023/03/15 11:01:26;;;;;;;;;;;;;;;;;;5095598;28;869;-71
2023/03/15 11:04:08;;;;;;;;;;;;;;;;;;5106478;28;1203;-71
2023/03/15 11:06:41;;;;;;;;;;;;;;;;;;5116411;28;1045;-71
2023/03/15 11:09:09;;;;;;;;;;;;;;;;;;5116476;28;1905;-70
2023/03/15 11:11:48;;;;;;;;;;;;;;;;;;5116025;28;1082;-71
2023/03/15 11:14:13;;;;;;;;;;;;;;;;;;5116561;28;935;-71
2023/03/15 11:16:39;;;;;;;;;;;;;;;;;;5116288;28;1002;-71
2023/03/15 11:19:10;;;;;;;;;;;;;;;;;;5115216;28;1103;-71
2023/03/15 11:21:37;;;;;;;;;;;;;;;;;;5116442;28;855;-71
2023/03/15 11:24:04;;;;;;;;;;;;;;;;;;5116113;28;884;-71
2023/03/15 11:26:33;;;;;;;;;;;;;;;;;;5116753;28;990;-70
2023/03/15 11:29:00;;;;;;;;;;;;;;;;;;5115891;28;1893;-70
2023/03/15 11:31:27;;;;;;;;;;;;;;;;;;5116001;28;848;-70
2023/03/15 11:33:55;;;;;;;;;;;;;;;;;;5115560;28;812;-70
2023/03/15 11:36:22;;;;;;;;;;;;;;;;;;5115483;28;1060;-70
2023/03/15 11:38:48;;;;;;;;;;;;;;;;;;5115152;28;816;-70
2023/03/15 11:41:28;;;;;;;;;;;;;;;;;;5115522;28;836;-70
2023/03/15 11:43:58;;;;;;;;;;;;;;;;;;5114082;28;1188;-70
2023/03/15 11:46:35;;;;;;;;;;;;;;;;;;5115163;28;1179;-71
2023/03/15 11:49:03;;;;;;;;;;;;;;;;;;5115010;28;1959;-70
2023/03/15 11:51:32;;;;;;;;;;;;;;;;;;5115235;28;816;-70
2023/03/15 11:54:07;;;;;;;;;;;;;;;;;;5113858;28;1211;-71
2023/03/15 11:56:44;;;;;;;;;;;;;;;;;;5115417;28;1065;-71
2023/03/15 11:59:11;;;;;;;;;;;;;;;;;;5115840;28;849;-71
2023/03/15 12:01:41;;;;;;;;;;;;;;;;;;5113775;28;813;-70
2023/03/15 12:04:25;;;;;;;;;;;;;;;;;;5115302;28;946;-70
2023/03/15 12:06:55;;;;;;;;;;;;;;;;;;5114369;28;1201;-71
2023/03/15 12:09:38;;;;;;;;;;;;;;;;;;5114251;28;1965;-70
2023/03/15 12:12:22;;;;;;;;;;;;;;;;;;5115123;28;1087;-70
2023/03/15 12:14:47;;;;;;;;;;;;;;;;;;5114809;28;963;-70
2023/03/15 12:17:27;;;;;;;;;;;;;;;;;;5115851;28;958;-70
2023/03/15 12:19:59;;;;;;;;;;;;;;;;;;5114130;28;1330;-70
2023/03/15 12:22:29;;;;;;;;;;;;;;;;;;5115318;28;990;-70
2023/03/15 12:24:57;;;;;;;;;;;;;;;;;;5115146;28;1004;-70
2023/03/15 12:27:23;;;;;;;;;;;;;;;;;;5115394;28;899;-70
2023/03/15 12:29:57;;;;;;;;;;;;;;;;;;5114758;28;1980;-70
2023/03/15 12:32:22;;;;;;;;;;;;;;;;;;5115519;28;820;-71
2023/03/15 12:34:49;;;;;;;;;;;;;;;;;;5115638;28;785;-71
2023/03/15 12:37:41;;;;;;;;;;;;;;;;;;5115719;28;820;-71
2023/03/15 12:40:21;;;;;;;;;;;;;;;;;;5112743;28;1360;-71
2023/03/15 12:42:46;;;;;;;;;;;;;;;;;;5115108;28;884;-71
2023/03/15 12:45:11;;;;;;;;;;;;;;;;;;5116069;28;923;-71
2023/03/15 12:47:48;;;;;;;;;;;;;;;;;;5116128;27;836;-71
2023/03/15 12:50:32;;;;;;;;;;;;;;;;;;5113706;28;1913;-71
2023/03/15 12:53:00;;;;;;;;;;;;;;;;;;5115126;28;836;-71
2023/03/15 12:55:31;;;;;;;;;;;;;;;;;;5115257;28;908;-71
2023/03/15 12:57:58;;;;;;;;;;;;;;;;;;5113127;28;1186;-71
2023/03/15 13:00:29;;;;;;;;;;;;;;;;;;5113834;28;1193;-71
2023/03/15 13:02:54;;;;;;;;;;;;;;;;;;5114377;28;982;-71
2023/03/15 13:05:24;;;;;;;;;;;;;;;;;;5112997;28;1154;-71
2023/03/15 13:07:52;;;;;;;;;;;;;;;;;;5114274;27;895;-71
2023/03/15 13:10:29;;;;;;;;;;;;;;;;;;5114244;28;1914;-71
2023/03/15 13:13:06;;;;;;;;;;;;;;;;;;5112426;28;1234;-71
2023/03/15 13:15:57;;;;;;;;;;;;;;;;;;5112997;28;1325;-71
2023/03/15 13:18:23;;;;;;;;;;;;;;;;;;5114544;28;914;-71
2023/03/15 13:20:54;;;;;;;;;;;;;;;;;;5112545;28;851;-71
2023/03/15 13:23:24;;;;;;;;;;;;;;;;;;5112795;28;1175;-71
2023/03/15 13:26:08;;;;;;;;;;;;;;;;;;5114055;28;959;-71
2023/03/15 13:28:45;;;;;;;;;;;;;;;;;;5113912;28;1951;-71
2023/03/15 13:31:16;;;;;;;;;;;;;;;;;;5113994;28;1052;-71
2023/03/15 13:33:41;;;;;;;;;;;;;;;;;;5113865;28;832;-70
2023/03/15 13:36:10;;;;;;;;;;;;;;;;;;5112265;28;891;-71
2023/03/15 13:38:45;;;;;;;;;;;;;;;;;;5114147;28;943;-70
2023/03/15 13:41:15;;;;;;;;;;;;;;;;;;5112329;28;1014;-71
2023/03/15 13:43:44;;;;;;;;;;;;;;;;;;5113678;28;786;-70
2023/03/15 13:46:09;;;;;;;;;;;;;;;;;;5113637;28;875;-70
2023/03/15 13:48:36;;;;;;;;;;;;;;;;;;5112687;28;1886;-71
2023/03/15 13:51:04;;;;;;;;;;;;;;;;;;5112815;28;1300;-71
2023/03/15 13:53:31;;;;;;;;;;;;;;;;;;5113907;28;832;-71
2023/03/15 13:55:57;;;;;;;;;;;;;;;;;;5113730;27;934;-71
2023/03/15 13:58:23;;;;;;;;;;;;;;;;;;5114044;28;796;-71
2023/03/15 14:00:54;;;;;;;;;;;;;;;;;;5111621;28;817;-71
2023/03/15 14:03:23;;;;;;;;;;;;;;;;;;5114104;28;824;-71
2023/03/15 14:05:51;;;;;;;;;;;;;;;;;;5113925;28;797;-71
2023/03/15 14:08:20;;;;;;;;;;;;;;;;;;5113760;28;844;-71
2023/03/15 14:10:56;;;;;;;;;;;;;;;;;;5113229;28;1977;-71
2023/03/15 14:13:32;;;;;;;;;;;;;;;;;;5113412;28;1147;-71
2023/03/15 14:16:02;;;;;;;;;;;;;;;;;;5112357;28;1497;-71
2023/03/15 14:18:38;;;;;;;;;;;;;;;;;;5111668;28;1301;-71
2023/03/15 14:21:20;;;;;;;;;;;;;;;;;;5113143;28;1026;-71
2023/03/15 14:23:47;;;;;;;;;;;;;;;;;;5112408;28;1144;-71
2023/03/15 14:26:15;;;;;;;;;;;;;;;;;;5117604;28;1297;-71
2023/03/15 14:28:46;;;;;;;;;;;;;;;;;;5115935;28;1964;-71
2023/03/15 14:31:18;;;;;;;;;;;;;;;;;;5115524;28;1290;-71
2023/03/15 14:33:52;;;;;;;;;;;;;;;;;;5116332;28;903;-71
2023/03/15 14:36:29;;;;;;;;;;;;;;;;;;5116056;28;1273;-71
2023/03/15 14:38:56;;;;;;;;;;;;;;;;;;5115835;28;1213;-71
2023/03/15 14:41:24;;;;;;;;;;;;;;;;;;5115607;28;1185;-71
2023/03/15 14:43:49;;;;;;;;;;;;;;;;;;5116887;28;891;-71
2023/03/15 14:46:15;;;;;;;;;;;;;;;;;;5115695;28;1127;-71
2023/03/15 14:48:40;;;;;;;;;;;;;;;;;;5116906;28;1977;-71
2023/03/15 14:51:06;;;;;;;;;;;;;;;;;;5115519;28;1292;-71
2023/03/15 14:53:33;;;;;;;;;;;;;;;;;;5115690;28;927;-71
2023/03/15 14:55:58;;;;;;;;;;;;;;;;;;5116441;28;892;-71
2023/03/15 14:58:24;;;;;;;;;;;;;;;;;;5098727;28;1009;-71
2023/03/15 15:00:52;;;;;;;;;;;;;;;;;;5117225;28;837;-71
2023/03/15 15:03:20;;;;;;;;;;;;;;;;;;5116807;27;856;-71
2023/03/15 15:05:46;;;;;;;;;;;;;;;;;;5116909;28;851;-71
2023/03/15 15:08:14;;;;;;;;;;;;;;;;;;5117212;28;787;-71
2023/03/15 15:10:40;;;;;;;;;;;;;;;;;;5116995;28;1906;-71
2023/03/15 15:13:05;;;;;;;;;;;;;;;;;;5116286;27;1380;-71
2023/03/15 15:15:31;;;;;;;;;;;;;;;;;;5098285;28;1099;-70
2023/03/15 15:17:57;;;;;;;;;;;;;;;;;;5116230;28;899;-71
2023/03/15 15:20:22;;;;;;;;;;;;;;;;;;5116532;28;899;-70
2023/03/15 15:22:48;;;;;;;;;;;;;;;;;;5115572;28;1296;-70
2023/03/15 15:25:15;;;;;;;;;;;;;;;;;;5115839;28;1149;-70
2023/03/15 15:27:40;;;;;;;;;;;;;;;;;;5117410;28;883;-71
2023/03/15 15:30:08;;;;;;;;;;;;;;;;;;5105903;28;1917;-71
2023/03/15 15:32:34;;;;;;;;;;;;;;;;;;5096058;28;1250;-71
2023/03/15 15:35:01;;;;;;;;;;;;;;;;;;5077067;28;1186;-71
2023/03/15 15:37:26;;;;;;;;;;;;;;;;;;5094467;28;856;-71
2023/03/15 15:39:52;;;;;;;;;;;;;;;;;;5093804;28;1300;-71
2023/03/15 15:42:17;;;;;;;;;;;;;;;;;;5095517;28;915;-70
2023/03/15 15:44:44;;;;;;;;;;;;;;;;;;5094313;28;876;-71
2023/03/15 15:47:10;;;;;;;;;;;;;;;;;;5094993;28;815;-70
2023/03/15 15:49:35;;;;;;;;;;;;;;;;;;5095111;28;1914;-70
2023/03/15 15:52:00;;;;;;;;;;;;;;;;;;5093818;28;1138;-70
2023/03/15 15:54:29;;;;;;;;;;;;;;;;;;5093448;28;856;-70
2023/03/15 15:56:55;;;;;;;;;;;;;;;;;;5093022;28;1329;-69
2023/03/15 15:59:24;;;;;;;;;;;;;;;;;;5093275;28;1182;-70
2023/03/15 16:01:49;;;;;;;;;;;;;;;;;;5093492;28;1175;-69
2023/03/15 16:04:14;;;;;;;;;;;;;;;;;;5093426;28;1323;-70
2023/03/15 16:06:40;;;;;;;;;;;;;;;;;;5093527;28;1166;-70
2023/03/15 16:09:07;;;;;;;;;;;;;;;;;;5094460;28;1909;-70
2023/03/15 16:11:32;;;;;;;;;;;;;;;;;;5094717;28;1464;-70
2023/03/15 16:13:58;;;;;;;;;;;;;;;;;;5093360;28;1284;-70
2023/03/15 16:16:23;;;;;;;;;;;;;;;;;;5094484;28;844;-70
2023/03/15 16:18:48;;;;;;;;;;;;;;;;;;5095218;28;919;-70
2023/03/15 16:21:14;;;;;;;;;;;;;;;;;;5077567;28;1328;-69
2023/03/15 16:23:40;;;;;;;;;;;;;;;;;;5095943;28;625;-70
2023/03/15 16:26:05;;;;;;;;;;;;;;;;;;5096081;28;917;-70
2023/03/15 16:28:31;;;;;;;;;;;;;;;;;;5077685;28;1194;-70
2023/03/15 16:30:56;;;;;;;;;;;;;;;;;;5077839;28;1910;-70
2023/03/15 16:33:22;;;;;;;;;;;;;;;;;;5094717;28;931;-71
2023/03/15 16:35:48;;;;;;;;;;;;;;;;;;5095731;28;840;-70
2023/03/15 16:38:15;;;;;;;;;;;;;;;;;;5095166;28;899;-70
2023/03/15 16:40:42;;;;;;;;;;;;;;;;;;5097991;28;1215;-70
2023/03/15 16:43:12;;;;;;;;;;;;;;;;;;5101497;28;1154;-70
2023/03/15 16:45:37;;;;;;;;;;;;;;;;;;5097479;28;1152;-70
2023/03/15 16:48:02;;;;;;;;;;;;;;;;;;5101634;28;1314;-70
2023/03/15 16:50:28;;;;;;;;;;;;;;;;;;5108609;28;1905;-69
2023/03/15 16:52:55;;;;;;;;;;;;;;;;;;5116136;28;927;-69
2023/03/15 16:55:25;;;;;;;;;;;;;;;;;;5115089;28;1388;-69
2023/03/15 16:57:50;;;;;;;;;;;;;;;;;;5116611;27;946;-69
2023/03/15 17:00:17;;;;;;;;;;;;;;;;;;5117468;28;895;-70
2023/03/15 17:02:50;;;;;;;;;;;;;;;;;;5116653;28;1173;-70
2023/03/15 17:05:18;;;;;;;;;;;;;;;;;;5117001;28;963;-69
2023/03/15 17:07:45;;;;;;;;;;;;;;;;;;5115786;28;860;-69
2023/03/15 17:10:22;;;;;;;;;;;;;;;;;;5113790;28;1965;-69
2023/03/15 17:12:48;;;;;;;;;;;;;;;;;;5114025;28;1321;-69